createdAt,value
2022-11-26T00:02:20.419Z,98810.28
2022-11-26T00:06:39.687Z,98806.63
2022-11-26T00:10:42.161Z,98812.88
2022-11-26T00:14:44.271Z,98821.28
2022-11-26T00:18:46.696Z,98821.00
2022-11-26T00:22:54.400Z,98815.66
2022-11-26T00:27:01.778Z,98818.56
2022-11-26T00:31:14.424Z,98816.94
2022-11-26T00:35:17.141Z,98812.66
2022-11-26T00:39:23.293Z,98814.97
2022-11-26T00:43:25.452Z,98813.84
2022-11-26T00:47:27.614Z,98817.50
2022-11-26T00:51:29.759Z,98812.94
2022-11-26T00:55:41.169Z,98819.06
2022-11-26T00:59:43.559Z,98831.31
2022-11-26T01:03:45.629Z,98819.38
2022-11-26T01:07:48.263Z,98818.00
2022-11-26T01:11:54.255Z,98819.44
2022-11-26T01:15:58.259Z,98811.75
2022-11-26T01:20:00.292Z,98805.84
2022-11-26T01:24:05.160Z,98796.56
2022-11-26T01:28:12.666Z,98786.53
2022-11-26T01:32:14.708Z,98790.50
2022-11-26T01:36:32.879Z,98802.69
2022-11-26T01:40:38.049Z,98796.31
2022-11-26T01:44:40.767Z,98800.88
2022-11-26T01:48:43.973Z,98800.09
2022-11-26T01:52:46.769Z,98794.75
2022-11-26T01:56:52.494Z,98783.16
2022-11-26T02:00:54.819Z,98785.56
2022-11-26T02:05:12.083Z,98785.31
2022-11-26T02:09:15.033Z,98787.41
2022-11-26T02:13:17.390Z,98779.44
2022-11-26T02:17:22.307Z,98779.94
2022-11-26T02:21:28.235Z,98771.06
2022-11-26T02:25:30.367Z,98763.25
2022-11-26T02:30:15.287Z,98762.72
2022-11-26T02:34:21.652Z,98756.19
2022-11-26T02:38:26.628Z,98748.47
2022-11-26T02:42:31.507Z,98736.19
2022-11-26T02:46:36.336Z,98730.94
2022-11-26T02:50:42.953Z,98733.38
2022-11-26T02:54:45.840Z,98722.56
2022-11-26T02:58:50.789Z,98719.75
2022-11-26T03:03:17.185Z,98718.53
2022-11-26T03:07:20.262Z,98727.38
2022-11-26T03:11:25.138Z,98720.78
2022-11-26T03:15:28.705Z,98724.53
2022-11-26T03:19:30.867Z,98724.81
2022-11-26T03:23:32.928Z,98722.94
2022-11-26T03:27:35.001Z,98721.31
2022-11-26T03:31:37.236Z,98720.22
2022-11-26T03:35:39.336Z,98722.31
2022-11-26T03:39:41.859Z,98728.25
2022-11-26T03:43:44.068Z,98722.63
2022-11-26T03:47:46.492Z,98717.44
2022-11-26T03:51:48.502Z,98725.75
2022-11-26T03:55:50.689Z,98721.84
2022-11-26T03:59:52.803Z,98706.41
2022-11-26T04:03:54.818Z,98701.84
2022-11-26T04:07:56.826Z,98704.59
2022-11-26T04:11:58.945Z,98702.81
2022-11-26T04:16:01.236Z,98710.38
2022-11-26T04:20:04.192Z,98713.03
2022-11-26T04:24:07.467Z,98710.38
2022-11-26T04:28:09.692Z,98725.97
2022-11-26T04:32:11.986Z,98723.31
2022-11-26T04:36:14.000Z,98732.66
2022-11-26T04:40:17.171Z,98727.69
2022-11-26T04:44:19.222Z,98724.50
2022-11-26T04:48:21.262Z,98717.50
2022-11-26T04:52:23.518Z,98727.94
2022-11-26T04:56:26.559Z,98731.69
2022-11-26T05:00:28.914Z,98737.00
2022-11-26T05:04:31.977Z,98728.16
2022-11-26T05:08:33.953Z,98719.56
2022-11-26T05:12:36.368Z,98725.75
2022-11-26T05:16:38.556Z,98721.75
2022-11-26T05:20:40.748Z,98725.22
2022-11-26T05:24:42.926Z,98732.75
2022-11-26T05:28:45.018Z,98726.28
2022-11-26T05:32:47.393Z,98740.72
2022-11-26T05:36:49.874Z,98745.00
2022-11-26T05:40:55.132Z,98746.84
2022-11-26T05:44:57.427Z,98755.75
2022-11-26T05:48:59.525Z,98752.25
2022-11-26T05:53:01.633Z,98762.97
2022-11-26T05:57:03.662Z,98769.56
2022-11-26T06:01:09.664Z,98779.94
2022-11-26T06:05:12.058Z,98766.56
2022-11-26T06:09:14.360Z,98774.00
2022-11-26T06:13:16.753Z,98777.25
2022-11-26T06:17:19.760Z,98777.72
2022-11-26T06:21:21.950Z,98790.50
2022-11-26T06:25:24.042Z,98810.22
2022-11-26T06:29:28.097Z,98821.66
2022-11-26T06:33:30.891Z,98822.53
2022-11-26T06:37:33.538Z,98841.47
2022-11-26T06:41:35.660Z,98839.59
2022-11-26T06:45:39.223Z,98823.16
2022-11-26T06:49:45.060Z,98830.09
2022-11-26T06:53:47.204Z,98840.19
2022-11-26T06:57:52.725Z,98843.88
2022-11-26T07:01:57.938Z,98851.31
2022-11-26T07:06:00.036Z,98853.34
2022-11-26T07:10:02.030Z,98850.19
2022-11-26T07:14:04.276Z,98840.88
2022-11-26T07:18:06.374Z,98865.94
2022-11-26T07:22:08.363Z,98869.97
2022-11-26T07:26:12.281Z,98879.38
2022-11-26T07:30:14.620Z,98885.38
2022-11-26T07:34:16.839Z,98886.13
2022-11-26T07:38:18.971Z,98882.09
2022-11-26T07:42:21.452Z,98878.03
2022-11-26T07:46:25.634Z,98886.00
2022-11-26T07:50:27.732Z,98880.75
2022-11-26T07:54:29.899Z,98889.38
2022-11-26T07:58:32.934Z,98888.66
2022-11-26T08:02:34.980Z,98888.16
2022-11-26T08:06:37.157Z,98900.72
2022-11-26T08:10:39.972Z,98892.78
2022-11-26T08:14:42.137Z,98906.09
2022-11-26T08:18:44.132Z,98905.34
2022-11-26T08:22:46.125Z,98916.34
2022-11-26T08:26:48.238Z,98916.66
2022-11-26T08:30:50.222Z,98916.47
2022-11-26T08:34:52.362Z,98934.13
2022-11-26T08:38:54.502Z,98957.66
2022-11-26T08:42:56.606Z,98945.41
2022-11-26T08:46:58.762Z,98944.91
2022-11-26T08:51:09.581Z,98963.09
2022-11-26T08:55:11.679Z,98980.91
2022-11-26T08:59:13.986Z,99003.06
2022-11-26T09:03:16.403Z,98998.69
2022-11-26T09:07:18.531Z,99009.34
2022-11-26T09:11:20.637Z,99009.75
2022-11-26T09:15:22.858Z,99014.19
2022-11-26T09:19:25.257Z,99032.66
2022-11-26T09:23:27.320Z,99049.03
2022-11-26T09:27:32.669Z,99057.66
2022-11-26T09:31:34.971Z,99057.19
2022-11-26T09:35:37.403Z,99052.34
2022-11-26T09:39:39.544Z,99064.72
2022-11-26T09:44:19.232Z,99069.13
2022-11-26T09:48:25.186Z,99083.16
2022-11-26T09:52:34.296Z,99071.97
2022-11-26T09:56:37.971Z,99080.75
2022-11-26T10:00:44.907Z,99054.38
2022-11-26T10:04:48.744Z,99059.84
2022-11-26T10:08:59.405Z,99063.13
2022-11-26T10:13:19.739Z,99068.72
2022-11-26T10:17:52.958Z,99067.03
2022-11-26T10:22:00.860Z,99071.03
2022-11-26T10:26:07.890Z,99066.44
2022-11-26T10:30:16.739Z,99069.56
2022-11-26T10:34:28.360Z,99068.72
2022-11-26T10:38:31.710Z,99062.41
2022-11-26T10:42:49.264Z,99054.22
2022-11-26T10:46:51.302Z,99044.75
2022-11-26T10:51:13.711Z,99066.13
2022-11-26T10:55:34.474Z,99048.94
2022-11-26T10:59:53.501Z,99069.47
2022-11-26T11:04:13.883Z,99067.63
2022-11-26T11:08:29.575Z,99058.06
2022-11-26T11:12:32.151Z,99079.47
2022-11-26T11:16:46.311Z,99094.31
2022-11-26T11:20:51.380Z,99094.81
2022-11-26T11:24:58.365Z,99121.97
2022-11-26T11:29:00.705Z,99103.50
2022-11-26T11:33:20.599Z,99104.91
2022-11-26T11:37:22.736Z,99091.06
2022-11-26T11:41:34.262Z,99101.25
2022-11-26T11:46:13.261Z,99081.16
2022-11-26T11:50:36.157Z,99078.03
2022-11-26T11:54:57.029Z,99084.69
2022-11-26T11:59:21.708Z,99076.69
2022-11-26T12:03:43.597Z,99074.50
2022-11-26T12:08:10.038Z,99079.66
2022-11-26T12:12:24.207Z,99071.84
2022-11-26T12:16:30.866Z,99067.56
2022-11-26T12:20:45.035Z,99087.28
2022-11-26T12:24:54.373Z,99081.78
2022-11-26T12:29:04.675Z,99075.88
2022-11-26T12:33:23.488Z,99061.72
2022-11-26T12:37:29.064Z,99061.22
2022-11-26T12:41:41.216Z,99061.84
2022-11-26T12:46:00.142Z,99061.84
2022-11-26T12:50:05.764Z,99068.03
2022-11-26T12:54:23.995Z,99067.81
2022-11-26T12:58:41.374Z,99070.28
2022-11-26T13:02:48.015Z,99071.13
2022-11-26T13:07:28.485Z,99070.81
2022-11-26T13:11:48.731Z,99078.97
2022-11-26T13:16:20.212Z,99066.50
2022-11-26T13:20:41.187Z,99073.44
2022-11-26T13:24:49.366Z,99072.41
2022-11-26T13:29:12.703Z,99109.50
2022-11-26T13:33:29.928Z,99075.03
2022-11-26T13:37:55.105Z,99088.09
2022-11-26T13:42:09.090Z,99081.75
2022-11-26T13:46:22.510Z,99085.81
2022-11-26T13:50:35.701Z,99084.28
2022-11-26T13:54:56.418Z,99094.44
2022-11-26T13:59:05.197Z,99090.19
2022-11-26T14:03:09.469Z,99098.53
2022-11-26T14:07:11.429Z,99107.06
2022-11-26T14:11:45.278Z,99102.22
2022-11-26T14:16:10.602Z,99109.38
2022-11-26T14:20:15.554Z,99115.78
2022-11-26T14:25:00.626Z,99124.88
2022-11-26T14:29:14.098Z,99125.34
2022-11-26T14:33:19.008Z,99127.94
2022-11-26T14:37:28.907Z,99138.41
2022-11-26T14:42:05.638Z,99118.13
2022-11-26T14:46:16.584Z,99095.97
2022-11-26T14:50:21.506Z,99102.38
2022-11-26T14:54:35.149Z,99123.13
2022-11-26T14:58:42.683Z,99095.41
2022-11-26T15:02:46.120Z,99094.38
2022-11-26T15:06:49.133Z,99088.41
2022-11-26T15:10:57.255Z,99101.47
2022-11-26T15:15:02.500Z,99110.50
2022-11-26T15:19:06.695Z,99140.13
2022-11-26T15:23:18.614Z,99145.50
2022-11-26T15:27:34.950Z,99164.78
2022-11-26T15:31:42.061Z,99166.69
2022-11-26T15:35:44.075Z,99181.31
2022-11-26T15:39:46.201Z,99183.09
2022-11-26T15:43:54.089Z,99192.47
2022-11-26T15:47:56.502Z,99195.47
2022-11-26T15:52:04.381Z,99201.84
2022-11-26T15:56:08.518Z,99212.31
2022-11-26T16:00:29.313Z,99214.34
2022-11-26T16:04:48.622Z,99218.94
2022-11-26T16:08:59.678Z,99214.13
2022-11-26T16:13:18.788Z,99236.94
2022-11-26T16:17:21.500Z,99250.06
2022-11-26T16:21:30.529Z,99246.06
2022-11-26T16:25:34.743Z,99252.50
2022-11-26T16:29:37.091Z,99244.28
2022-11-26T16:33:39.903Z,99245.69
2022-11-26T16:37:45.177Z,99260.16
2022-11-26T16:41:47.247Z,99263.78
2022-11-26T16:45:53.391Z,99270.03
2022-11-26T16:49:56.113Z,99279.28
2022-11-26T16:53:58.326Z,99274.06
2022-11-26T16:58:01.502Z,99268.00
2022-11-26T17:02:03.839Z,99286.28
2022-11-26T17:06:25.775Z,99287.81
2022-11-26T17:10:31.418Z,99293.97
2022-11-26T17:14:33.654Z,99291.22
2022-11-26T17:18:35.731Z,99295.88
2022-11-26T17:22:37.726Z,99292.50
2022-11-26T17:26:39.812Z,99293.47
2022-11-26T17:30:44.020Z,99293.88
2022-11-26T17:34:47.329Z,99301.88
2022-11-26T17:38:50.463Z,99300.97
2022-11-26T17:42:52.919Z,99303.81
2022-11-26T17:51:19.700Z,99295.88
2022-11-26T17:55:24.267Z,99298.94
2022-11-26T17:59:26.507Z,99295.72
2022-11-26T18:03:28.889Z,99310.06
2022-11-26T18:07:31.514Z,99300.31
2022-11-26T18:12:00.871Z,99313.63
2022-11-26T18:16:03.553Z,99306.38
2022-11-26T18:20:06.554Z,99310.31
2022-11-26T18:24:12.084Z,99312.50
2022-11-26T18:28:16.662Z,99316.47
2022-11-26T18:32:18.666Z,99329.47
2022-11-26T18:36:20.795Z,99320.34
2022-11-26T18:40:23.188Z,99325.19
2022-11-26T18:44:25.790Z,99329.88
2022-11-26T18:48:27.911Z,99330.50
2022-11-26T18:52:33.170Z,99320.13
2022-11-26T18:56:35.671Z,99321.31
2022-11-26T19:00:38.360Z,99308.31
2022-11-26T19:04:40.634Z,99307.94
2022-11-26T19:08:43.652Z,99316.13
2022-11-26T19:12:48.168Z,99306.47
2022-11-26T19:16:53.324Z,99308.06
2022-11-26T19:20:56.398Z,99317.66
2022-11-26T19:24:58.602Z,99329.53
2022-11-26T19:29:04.013Z,99321.88
2022-11-26T19:33:06.417Z,99315.81
2022-11-26T19:37:11.743Z,99308.63
2022-11-26T19:41:14.515Z,99331.47
2022-11-26T19:45:16.824Z,99328.19
2022-11-26T19:49:18.949Z,99322.69
2022-11-26T19:53:24.788Z,99333.75
2022-11-26T19:57:27.392Z,99343.25
2022-11-26T20:01:31.756Z,99342.13
2022-11-26T20:05:36.184Z,99358.09
2022-11-26T20:09:38.552Z,99360.59
2022-11-26T20:13:45.225Z,99358.50
2022-11-26T20:17:47.734Z,99372.53
2022-11-26T20:21:50.662Z,99373.66
2022-11-26T20:25:53.603Z,99381.38
2022-11-26T20:29:56.227Z,99397.25
2022-11-26T20:33:58.515Z,99387.84
2022-11-26T20:38:00.621Z,99384.59
2022-11-26T20:42:02.832Z,99384.75
2022-11-26T20:46:06.972Z,99391.31
2022-11-26T20:50:10.880Z,99398.16
2022-11-26T20:54:13.389Z,99414.16
2022-11-26T20:58:15.439Z,99396.34
2022-11-26T21:02:17.542Z,99409.88
2022-11-26T21:06:28.999Z,99399.72
2022-11-26T21:10:31.534Z,99417.09
2022-11-26T21:14:33.911Z,99411.16
2022-11-26T21:18:36.414Z,99405.97
2022-11-26T21:22:40.875Z,99413.84
2022-11-26T21:26:56.743Z,99410.00
2022-11-26T21:31:27.030Z,99410.38
2022-11-26T21:35:36.068Z,99430.94
2022-11-26T21:39:44.319Z,99410.09
2022-11-26T21:43:48.067Z,99421.28
2022-11-26T21:47:51.531Z,99430.84
2022-11-26T21:51:54.024Z,99430.03
2022-11-26T21:55:56.355Z,99418.66
2022-11-26T21:59:58.343Z,99429.06
2022-11-26T22:04:04.625Z,99446.78
2022-11-26T22:08:06.868Z,99447.25
2022-11-26T22:12:09.081Z,99448.75
2022-11-26T22:16:17.033Z,99450.59
2022-11-26T22:20:19.361Z,99451.22
2022-11-26T22:24:22.194Z,99458.34
2022-11-26T22:28:29.698Z,99458.03
2022-11-26T22:32:32.109Z,99450.72
2022-11-26T22:36:34.685Z,99466.44
2022-11-26T22:40:36.857Z,99469.81
2022-11-26T22:44:38.908Z,99450.72
2022-11-26T22:48:42.550Z,99469.47
2022-11-26T22:52:44.648Z,99467.88
2022-11-26T22:56:47.044Z,99461.16
2022-11-26T23:00:52.666Z,99460.72
2022-11-26T23:04:55.896Z,99459.28
2022-11-26T23:09:03.467Z,99465.66
2022-11-26T23:13:06.890Z,99462.53
2022-11-26T23:17:10.176Z,99448.00
2022-11-26T23:21:24.613Z,99455.06
2022-11-26T23:25:26.650Z,99441.66
2022-11-26T23:29:28.989Z,99441.19
2022-11-26T23:33:31.902Z,99441.66
2022-11-26T23:37:33.970Z,99450.78
2022-11-26T23:41:36.657Z,99447.56
2022-11-26T23:45:38.608Z,99437.84
2022-11-26T23:49:40.744Z,99435.06
2022-11-26T23:53:45.197Z,99436.78
2022-11-26T23:57:47.325Z,99442.09
